Highland, Minnesota
Current Conditions -  °F | °C
As of 7:56 PM on Monday 20 Oct 2014 (Local Time) from KFKA Reporting Station
Clear Clear  
Wind Chill:   Ceiling: Unl
Heat Index: 10°   Visibility: 10mi
Dew Point:   Wind: 6mph
Humidity: 70%   Direction: 20°NNE
Pressure: 30.03"   Gusts: NA
Location:  43.7165°N, 91.9871°W
Report Text: KFKA 210056Z AUTO 02005KT 10SM CLR 10/05 A3003 RMK AO2 T00980046
Loading
Personal Weather Stations






























Interactive Weather Map
Tropical Storm Tracking
New forecast layout! Learn more

10-Day Weather Forecast

Advertisements
Track Severe Weather on mobile